Terminal Aerodrome Forecast
Issued by NWS

Home | Current Version | Previous Version | Text Only | Print | Product List | Glossary On
Versions: 1 2 3 4 5 6 7 8 9 10 11 12 13 14 15 16 17 18 19 20
893
FTUS46 KPDT 181139
TAFPSC
TAF
KPSC 181139Z 1812/1912 31010KT 6SM FZRAPL BKN015 OVC040
      TEMPO 1812/1815 4SM BR SCT015 OVC040
     FM181800 21006KT 4SM -RA BR SCT035 OVC060
     FM182100 18010KT P6SM VCSH FEW040 OVC080=

USA.gov is the U.S. government's official web portal to all federal, state and local government web resources and services.